sensor_id;sensor_type;location;lat;lon;timestamp;P1;durP1;ratioP1;P2;durP2;ratioP2
61019;SDS011;51384;45.494;9.150;2022-07-12T00:01:17;3.80;;;1.73;;
61019;SDS011;51384;45.494;9.150;2022-07-12T00:03:43;4.70;;;1.73;;
61019;SDS011;51384;45.494;9.150;2022-07-12T00:06:09;2.28;;;1.63;;
61019;SDS011;51384;45.494;9.150;2022-07-12T00:08:35;4.38;;;1.50;;
61019;SDS011;51384;45.494;9.150;2022-07-12T00:11:02;5.85;;;1.73;;
61019;SDS011;51384;45.494;9.150;2022-07-12T00:13:28;6.10;;;1.70;;
61019;SDS011;51384;45.494;9.150;2022-07-12T00:15:55;3.25;;;1.80;;
61019;SDS011;51384;45.494;9.150;2022-07-12T00:18:22;2.47;;;1.45;;
61019;SDS011;51384;45.494;9.150;2022-07-12T00:20:48;7.65;;;1.77;;
61019;SDS011;51384;45.494;9.150;2022-07-12T00:23:15;3.15;;;1.80;;
61019;SDS011;51384;45.494;9.150;2022-07-12T00:25:41;4.70;;;1.90;;
61019;SDS011;51384;45.494;9.150;2022-07-12T00:28:07;3.05;;;1.60;;
61019;SDS011;51384;45.494;9.150;2022-07-12T00:30:33;4.03;;;1.70;;
61019;SDS011;51384;45.494;9.150;2022-07-12T00:32:59;4.30;;;1.83;;
61019;SDS011;51384;45.494;9.150;2022-07-12T00:35:25;3.63;;;1.58;;
61019;SDS011;51384;45.494;9.150;2022-07-12T00:37:51;7.45;;;1.92;;
61019;SDS011;51384;45.494;9.150;2022-07-12T00:40:17;3.08;;;1.67;;
61019;SDS011;51384;45.494;9.150;2022-07-12T00:42:44;4.70;;;1.60;;
61019;SDS011;51384;45.494;9.150;2022-07-12T00:45:10;4.10;;;2.05;;
61019;SDS011;51384;45.494;9.150;2022-07-12T00:47:37;4.22;;;1.45;;
61019;SDS011;51384;45.494;9.150;2022-07-12T00:50:09;2.72;;;1.60;;
61019;SDS011;51384;45.494;9.150;2022-07-12T00:52:38;2.65;;;1.40;;
61019;SDS011;51384;45.494;9.150;2022-07-12T00:55:05;1.92;;;1.38;;
61019;SDS011;51384;45.494;9.150;2022-07-12T00:57:32;2.97;;;1.30;;
61019;SDS011;51384;45.494;9.150;2022-07-12T00:59:58;2.30;;;1.30;;
61019;SDS011;51384;45.494;9.150;2022-07-12T01:02:24;5.05;;;1.70;;
61019;SDS011;51384;45.494;9.150;2022-07-12T01:04:51;2.67;;;1.48;;
61019;SDS011;51384;45.494;9.150;2022-07-12T01:07:18;2.83;;;1.60;;
61019;SDS011;51384;45.494;9.150;2022-07-12T01:09:44;3.70;;;1.33;;
61019;SDS011;51384;45.494;9.150;2022-07-12T01:12:10;3.53;;;1.40;;
61019;SDS011;51384;45.494;9.150;2022-07-12T01:14:37;4.50;;;1.60;;
61019;SDS011;51384;45.494;9.150;2022-07-12T01:17:05;3.08;;;1.73;;
61019;SDS011;51384;45.494;9.150;2022-07-12T01:19:31;2.13;;;1.27;;
61019;SDS011;51384;45.494;9.150;2022-07-12T01:21:58;2.63;;;1.30;;
61019;SDS011;51384;45.494;9.150;2022-07-12T01:24:25;6.28;;;1.67;;
61019;SDS011;51384;45.494;9.150;2022-07-12T01:26:51;3.25;;;1.60;;
61019;SDS011;51384;45.494;9.150;2022-07-12T01:29:17;2.35;;;1.40;;
61019;SDS011;51384;45.494;9.150;2022-07-12T01:31:43;2.35;;;1.23;;
61019;SDS011;51384;45.494;9.150;2022-07-12T01:34:09;3.00;;;1.50;;
61019;SDS011;51384;45.494;9.150;2022-07-12T01:36:35;4.32;;;1.42;;
61019;SDS011;51384;45.494;9.150;2022-07-12T01:39:03;2.65;;;1.30;;
61019;SDS011;51384;45.494;9.150;2022-07-12T01:41:30;3.65;;;1.48;;
61019;SDS011;51384;45.494;9.150;2022-07-12T01:43:57;3.00;;;1.33;;
61019;SDS011;51384;45.494;9.150;2022-07-12T01:46:23;3.45;;;1.48;;
61019;SDS011;51384;45.494;9.150;2022-07-12T01:48:49;3.75;;;1.60;;
61019;SDS011;51384;45.494;9.150;2022-07-12T01:51:15;2.58;;;1.40;;
61019;SDS011;51384;45.494;9.150;2022-07-12T01:53:41;3.28;;;1.48;;
61019;SDS011;51384;45.494;9.150;2022-07-12T01:56:08;3.45;;;1.30;;
61019;SDS011;51384;45.494;9.150;2022-07-12T01:58:34;4.57;;;1.63;;
61019;SDS011;51384;45.494;9.150;2022-07-12T02:01:00;3.28;;;1.50;;
61019;SDS011;51384;45.494;9.150;2022-07-12T02:03:26;3.38;;;1.25;;
61019;SDS011;51384;45.494;9.150;2022-07-12T02:05:52;3.42;;;1.40;;
61019;SDS011;51384;45.494;9.150;2022-07-12T02:08:18;2.55;;;1.20;;
61019;SDS011;51384;45.494;9.150;2022-07-12T02:10:44;3.47;;;1.40;;
61019;SDS011;51384;45.494;9.150;2022-07-12T02:13:10;2.20;;;1.27;;
61019;SDS011;51384;45.494;9.150;2022-07-12T02:15:36;3.47;;;1.40;;
61019;SDS011;51384;45.494;9.150;2022-07-12T02:18:02;4.85;;;1.35;;
61019;SDS011;51384;45.494;9.150;2022-07-12T02:20:28;2.72;;;1.50;;
61019;SDS011;51384;45.494;9.150;2022-07-12T02:22:54;2.47;;;1.40;;
61019;SDS011;51384;45.494;9.150;2022-07-12T02:25:21;2.70;;;1.52;;
61019;SDS011;51384;45.494;9.150;2022-07-12T02:27:47;3.25;;;1.40;;
61019;SDS011;51384;45.494;9.150;2022-07-12T02:30:14;4.15;;;1.27;;
61019;SDS011;51384;45.494;9.150;2022-07-12T02:32:40;3.70;;;1.40;;
61019;SDS011;51384;45.494;9.150;2022-07-12T02:35:06;7.25;;;1.50;;
61019;SDS011;51384;45.494;9.150;2022-07-12T02:37:32;2.83;;;1.20;;
61019;SDS011;51384;45.494;9.150;2022-07-12T02:39:58;2.75;;;1.30;;
61019;SDS011;51384;45.494;9.150;2022-07-12T02:42:43;4.65;;;1.48;;
61019;SDS011;51384;45.494;9.150;2022-07-12T02:45:09;3.78;;;1.50;;
61019;SDS011;51384;45.494;9.150;2022-07-12T02:47:37;3.05;;;1.35;;
61019;SDS011;51384;45.494;9.150;2022-07-12T02:50:03;3.88;;;1.40;;
61019;SDS011;51384;45.494;9.150;2022-07-12T02:52:30;1.92;;;1.20;;
61019;SDS011;51384;45.494;9.150;2022-07-12T02:54:56;3.20;;;1.30;;
61019;SDS011;51384;45.494;9.150;2022-07-12T02:57:22;2.13;;;1.23;;
61019;SDS011;51384;45.494;9.150;2022-07-12T02:59:48;3.22;;;1.20;;
61019;SDS011;51384;45.494;9.150;2022-07-12T03:02:14;3.00;;;1.20;;
61019;SDS011;51384;45.494;9.150;2022-07-12T03:04:40;3.40;;;1.40;;
61019;SDS011;51384;45.494;9.150;2022-07-12T03:07:06;2.53;;;1.27;;
61019;SDS011;51384;45.494;9.150;2022-07-12T03:09:32;2.40;;;1.45;;
61019;SDS011;51384;45.494;9.150;2022-07-12T03:11:58;2.78;;;1.27;;
61019;SDS011;51384;45.494;9.150;2022-07-12T03:14:24;4.10;;;1.30;;
61019;SDS011;51384;45.494;9.150;2022-07-12T03:16:51;1.73;;;1.20;;
61019;SDS011;51384;45.494;9.150;2022-07-12T03:19:17;2.72;;;1.30;;
61019;SDS011;51384;45.494;9.150;2022-07-12T03:21:43;3.40;;;1.42;;
61019;SDS011;51384;45.494;9.150;2022-07-12T03:24:09;2.40;;;1.60;;
61019;SDS011;51384;45.494;9.150;2022-07-12T03:26:35;2.63;;;1.20;;
61019;SDS011;51384;45.494;9.150;2022-07-12T03:29:01;2.60;;;1.27;;
61019;SDS011;51384;45.494;9.150;2022-07-12T03:31:28;4.97;;;2.08;;
61019;SDS011;51384;45.494;9.150;2022-07-12T03:33:54;3.45;;;1.55;;
61019;SDS011;51384;45.494;9.150;2022-07-12T03:36:20;3.05;;;1.48;;
61019;SDS011;51384;45.494;9.150;2022-07-12T03:38:46;4.97;;;1.50;;
61019;SDS011;51384;45.494;9.150;2022-07-12T03:41:12;3.40;;;1.50;;
61019;SDS011;51384;45.494;9.150;2022-07-12T03:43:38;2.47;;;1.30;;
61019;SDS011;51384;45.494;9.150;2022-07-12T03:46:04;1.80;;;1.10;;
61019;SDS011;51384;45.494;9.150;2022-07-12T03:48:30;1.92;;;1.20;;
61019;SDS011;51384;45.494;9.150;2022-07-12T03:50:56;4.63;;;1.63;;
61019;SDS011;51384;45.494;9.150;2022-07-12T03:53:22;2.05;;;1.20;;
61019;SDS011;51384;45.494;9.150;2022-07-12T03:55:48;2.67;;;1.40;;
61019;SDS011;51384;45.494;9.150;2022-07-12T03:58:14;3.13;;;1.58;;
61019;SDS011;51384;45.494;9.150;2022-07-12T04:00:40;3.00;;;2.05;;
61019;SDS011;51384;45.494;9.150;2022-07-12T04:03:08;2.35;;;1.60;;
61019;SDS011;51384;45.494;9.150;2022-07-12T04:05:35;1.83;;;1.20;;
61019;SDS011;51384;45.494;9.150;2022-07-12T04:08:01;5.35;;;1.67;;
61019;SDS011;51384;45.494;9.150;2022-07-12T04:10:27;4.10;;;1.63;;
61019;SDS011;51384;45.494;9.150;2022-07-12T04:12:53;3.33;;;1.73;;
61019;SDS011;51384;45.494;9.150;2022-07-12T04:15:19;4.28;;;1.30;;
61019;SDS011;51384;45.494;9.150;2022-07-12T04:17:45;3.05;;;1.50;;
61019;SDS011;51384;45.494;9.150;2022-07-12T04:20:11;3.95;;;1.90;;
61019;SDS011;51384;45.494;9.150;2022-07-12T04:22:38;5.05;;;1.92;;
61019;SDS011;51384;45.494;9.150;2022-07-12T04:25:05;2.83;;;1.80;;
61019;SDS011;51384;45.494;9.150;2022-07-12T04:27:31;5.30;;;2.10;;
61019;SDS011;51384;45.494;9.150;2022-07-12T04:29:57;2.25;;;1.40;;
61019;SDS011;51384;45.494;9.150;2022-07-12T04:32:23;4.00;;;1.67;;
61019;SDS011;51384;45.494;9.150;2022-07-12T04:34:49;5.35;;;1.80;;
61019;SDS011;51384;45.494;9.150;2022-07-12T04:37:15;3.58;;;1.85;;
61019;SDS011;51384;45.494;9.150;2022-07-12T04:39:41;3.50;;;1.50;;
61019;SDS011;51384;45.494;9.150;2022-07-12T04:42:08;3.80;;;1.50;;
61019;SDS011;51384;45.494;9.150;2022-07-12T04:44:34;2.58;;;1.33;;
61019;SDS011;51384;45.494;9.150;2022-07-12T04:47:00;2.88;;;1.40;;
61019;SDS011;51384;45.494;9.150;2022-07-12T04:49:26;3.90;;;1.60;;
61019;SDS011;51384;45.494;9.150;2022-07-12T04:51:52;5.30;;;1.40;;
61019;SDS011;51384;45.494;9.150;2022-07-12T04:54:18;2.75;;;1.75;;
61019;SDS011;51384;45.494;9.150;2022-07-12T04:56:44;4.05;;;1.67;;
61019;SDS011;51384;45.494;9.150;2022-07-12T04:59:10;3.38;;;1.60;;
61019;SDS011;51384;45.494;9.150;2022-07-12T05:01:36;4.40;;;1.50;;
61019;SDS011;51384;45.494;9.150;2022-07-12T05:04:02;3.35;;;1.60;;
61019;SDS011;51384;45.494;9.150;2022-07-12T05:06:29;3.45;;;1.42;;
61019;SDS011;51384;45.494;9.150;2022-07-12T05:08:55;4.28;;;1.70;;
61019;SDS011;51384;45.494;9.150;2022-07-12T05:11:21;3.63;;;1.45;;
61019;SDS011;51384;45.494;9.150;2022-07-12T05:13:47;5.10;;;1.50;;
61019;SDS011;51384;45.494;9.150;2022-07-12T05:16:13;4.15;;;1.50;;
61019;SDS011;51384;45.494;9.150;2022-07-12T05:18:39;3.72;;;1.48;;
61019;SDS011;51384;45.494;9.150;2022-07-12T05:21:06;6.35;;;1.88;;
61019;SDS011;51384;45.494;9.150;2022-07-12T05:23:32;2.40;;;1.38;;
61019;SDS011;51384;45.494;9.150;2022-07-12T05:25:58;3.30;;;1.50;;
61019;SDS011;51384;45.494;9.150;2022-07-12T05:28:24;3.38;;;1.60;;
61019;SDS011;51384;45.494;9.150;2022-07-12T05:30:50;3.90;;;1.40;;
61019;SDS011;51384;45.494;9.150;2022-07-12T05:33:16;6.05;;;1.75;;
61019;SDS011;51384;45.494;9.150;2022-07-12T05:35:42;2.25;;;1.30;;
61019;SDS011;51384;45.494;9.150;2022-07-12T05:38:08;2.35;;;1.45;;
61019;SDS011;51384;45.494;9.150;2022-07-12T05:40:35;2.35;;;1.58;;
61019;SDS011;51384;45.494;9.150;2022-07-12T05:43:01;2.92;;;1.48;;
61019;SDS011;51384;45.494;9.150;2022-07-12T05:45:27;5.32;;;1.40;;
61019;SDS011;51384;45.494;9.150;2022-07-12T05:47:53;4.35;;;1.50;;
61019;SDS011;51384;45.494;9.150;2022-07-12T05:50:19;3.17;;;1.40;;
61019;SDS011;51384;45.494;9.150;2022-07-12T05:52:45;2.95;;;1.30;;
61019;SDS011;51384;45.494;9.150;2022-07-12T05:55:29;3.42;;;1.30;;
61019;SDS011;51384;45.494;9.150;2022-07-12T05:57:56;5.10;;;1.60;;
61019;SDS011;51384;45.494;9.150;2022-07-12T06:00:22;5.32;;;2.15;;
61019;SDS011;51384;45.494;9.150;2022-07-12T06:02:48;3.33;;;1.45;;
61019;SDS011;51384;45.494;9.150;2022-07-12T06:05:14;7.63;;;1.73;;
61019;SDS011;51384;45.494;9.150;2022-07-12T06:07:40;2.63;;;1.63;;
61019;SDS011;51384;45.494;9.150;2022-07-12T06:10:06;4.05;;;1.55;;
61019;SDS011;51384;45.494;9.150;2022-07-12T06:12:33;3.55;;;1.40;;
61019;SDS011;51384;45.494;9.150;2022-07-12T06:14:59;4.85;;;1.63;;
61019;SDS011;51384;45.494;9.150;2022-07-12T06:17:25;4.47;;;1.42;;
61019;SDS011;51384;45.494;9.150;2022-07-12T06:19:51;2.55;;;1.30;;
61019;SDS011;51384;45.494;9.150;2022-07-12T06:22:17;4.38;;;1.98;;
61019;SDS011;51384;45.494;9.150;2022-07-12T06:24:43;5.50;;;2.95;;
61019;SDS011;51384;45.494;9.150;2022-07-12T06:27:10;2.17;;;1.40;;
61019;SDS011;51384;45.494;9.150;2022-07-12T06:29:36;2.60;;;1.75;;
61019;SDS011;51384;45.494;9.150;2022-07-12T06:32:02;4.15;;;1.80;;
61019;SDS011;51384;45.494;9.150;2022-07-12T06:34:28;4.55;;;1.67;;
61019;SDS011;51384;45.494;9.150;2022-07-12T06:36:54;2.47;;;1.45;;
61019;SDS011;51384;45.494;9.150;2022-07-12T06:39:20;3.35;;;1.63;;
61019;SDS011;51384;45.494;9.150;2022-07-12T06:41:46;3.28;;;1.70;;
61019;SDS011;51384;45.494;9.150;2022-07-12T06:44:12;4.13;;;1.80;;
61019;SDS011;51384;45.494;9.150;2022-07-12T06:46:38;3.97;;;1.45;;
61019;SDS011;51384;45.494;9.150;2022-07-12T06:49:04;3.17;;;1.60;;
61019;SDS011;51384;45.494;9.150;2022-07-12T06:51:30;4.78;;;1.70;;
61019;SDS011;51384;45.494;9.150;2022-07-12T06:53:56;3.05;;;1.50;;
61019;SDS011;51384;45.494;9.150;2022-07-12T06:56:22;5.78;;;2.03;;
61019;SDS011;51384;45.494;9.150;2022-07-12T06:58:49;5.30;;;2.10;;
61019;SDS011;51384;45.494;9.150;2022-07-12T07:01:15;5.20;;;1.60;;
61019;SDS011;51384;45.494;9.150;2022-07-12T07:03:41;4.63;;;1.58;;
61019;SDS011;51384;45.494;9.150;2022-07-12T07:06:07;7.32;;;1.92;;
61019;SDS011;51384;45.494;9.150;2022-07-12T07:08:33;3.33;;;1.40;;
61019;SDS011;51384;45.494;9.150;2022-07-12T07:10:59;4.68;;;1.63;;
61019;SDS011;51384;45.494;9.150;2022-07-12T07:13:25;3.55;;;1.80;;
61019;SDS011;51384;45.494;9.150;2022-07-12T07:15:51;3.10;;;1.50;;
61019;SDS011;51384;45.494;9.150;2022-07-12T07:18:17;4.57;;;1.70;;
61019;SDS011;51384;45.494;9.150;2022-07-12T07:20:43;13.57;;;2.20;;
61019;SDS011;51384;45.494;9.150;2022-07-12T07:23:09;2.90;;;1.40;;
61019;SDS011;51384;45.494;9.150;2022-07-12T07:25:35;5.55;;;1.80;;
61019;SDS011;51384;45.494;9.150;2022-07-12T07:28:01;4.35;;;1.63;;
61019;SDS011;51384;45.494;9.150;2022-07-12T07:30:27;5.15;;;2.10;;
61019;SDS011;51384;45.494;9.150;2022-07-12T07:33:12;7.00;;;2.33;;
61019;SDS011;51384;45.494;9.150;2022-07-12T07:35:38;4.57;;;1.88;;
61019;SDS011;51384;45.494;9.150;2022-07-12T07:38:05;4.40;;;2.13;;
61019;SDS011;51384;45.494;9.150;2022-07-12T07:40:31;5.22;;;2.00;;
61019;SDS011;51384;45.494;9.150;2022-07-12T07:42:57;4.65;;;2.10;;
61019;SDS011;51384;45.494;9.150;2022-07-12T07:45:23;3.60;;;1.48;;
61019;SDS011;51384;45.494;9.150;2022-07-12T07:47:49;3.83;;;2.03;;
61019;SDS011;51384;45.494;9.150;2022-07-12T07:50:15;4.68;;;1.90;;
61019;SDS011;51384;45.494;9.150;2022-07-12T07:52:41;6.65;;;2.58;;
61019;SDS011;51384;45.494;9.150;2022-07-12T07:55:07;3.22;;;1.75;;
61019;SDS011;51384;45.494;9.150;2022-07-12T07:57:33;3.53;;;1.52;;
61019;SDS011;51384;45.494;9.150;2022-07-12T07:59:59;5.03;;;1.70;;
61019;SDS011;51384;45.494;9.150;2022-07-12T08:02:25;5.55;;;1.88;;
61019;SDS011;51384;45.494;9.150;2022-07-12T08:04:52;6.95;;;1.90;;
61019;SDS011;51384;45.494;9.150;2022-07-12T08:07:18;3.15;;;1.60;;
61019;SDS011;51384;45.494;9.150;2022-07-12T08:09:44;5.95;;;2.15;;
61019;SDS011;51384;45.494;9.150;2022-07-12T08:12:10;3.97;;;1.55;;
61019;SDS011;51384;45.494;9.150;2022-07-12T08:14:36;3.75;;;1.70;;
61019;SDS011;51384;45.494;9.150;2022-07-12T08:17:02;4.97;;;2.15;;
61019;SDS011;51384;45.494;9.150;2022-07-12T08:19:28;6.45;;;1.90;;
61019;SDS011;51384;45.494;9.150;2022-07-12T08:21:54;3.90;;;1.70;;
61019;SDS011;51384;45.494;9.150;2022-07-12T08:24:20;4.15;;;1.70;;
61019;SDS011;51384;45.494;9.150;2022-07-12T08:26:46;4.13;;;2.20;;
61019;SDS011;51384;45.494;9.150;2022-07-12T08:29:13;8.50;;;1.90;;
61019;SDS011;51384;45.494;9.150;2022-07-12T08:31:39;3.75;;;1.80;;
61019;SDS011;51384;45.494;9.150;2022-07-12T08:34:05;3.80;;;1.80;;
61019;SDS011;51384;45.494;9.150;2022-07-12T08:36:31;2.88;;;1.63;;
61019;SDS011;51384;45.494;9.150;2022-07-12T08:38:57;3.75;;;1.98;;
61019;SDS011;51384;45.494;9.150;2022-07-12T08:41:23;5.68;;;1.88;;
61019;SDS011;51384;45.494;9.150;2022-07-12T08:43:50;3.67;;;1.58;;
61019;SDS011;51384;45.494;9.150;2022-07-12T08:46:16;3.17;;;1.67;;
61019;SDS011;51384;45.494;9.150;2022-07-12T08:48:42;6.78;;;2.17;;
61019;SDS011;51384;45.494;9.150;2022-07-12T08:51:09;5.38;;;1.90;;
61019;SDS011;51384;45.494;9.150;2022-07-12T08:53:36;3.22;;;2.10;;
61019;SDS011;51384;45.494;9.150;2022-07-12T08:56:03;5.50;;;2.13;;
61019;SDS011;51384;45.494;9.150;2022-07-12T08:58:29;3.65;;;1.92;;
61019;SDS011;51384;45.494;9.150;2022-07-12T09:00:56;13.75;;;2.28;;
61019;SDS011;51384;45.494;9.150;2022-07-12T09:03:22;5.05;;;2.50;;
61019;SDS011;51384;45.494;9.150;2022-07-12T09:05:49;5.68;;;1.85;;
61019;SDS011;51384;45.494;9.150;2022-07-12T09:08:16;3.97;;;2.25;;
61019;SDS011;51384;45.494;9.150;2022-07-12T09:15:41;3.17;;;1.70;;
61019;SDS011;51384;45.494;9.150;2022-07-12T09:18:07;3.97;;;1.75;;
61019;SDS011;51384;45.494;9.150;2022-07-12T09:20:39;3.33;;;1.75;;
61019;SDS011;51384;45.494;9.150;2022-07-12T09:23:06;3.25;;;1.80;;
61019;SDS011;51384;45.494;9.150;2022-07-12T09:25:33;7.55;;;1.80;;
61019;SDS011;51384;45.494;9.150;2022-07-12T09:28:02;5.40;;;2.03;;
61019;SDS011;51384;45.494;9.150;2022-07-12T09:30:29;2.20;;;1.48;;
61019;SDS011;51384;45.494;9.150;2022-07-12T09:35:46;4.47;;;2.00;;
61019;SDS011;51384;45.494;9.150;2022-07-12T09:41:10;4.72;;;2.20;;
61019;SDS011;51384;45.494;9.150;2022-07-12T09:43:41;5.38;;;1.52;;
61019;SDS011;51384;45.494;9.150;2022-07-12T09:46:08;5.32;;;2.10;;
61019;SDS011;51384;45.494;9.150;2022-07-12T09:48:34;6.80;;;2.53;;
61019;SDS011;51384;45.494;9.150;2022-07-12T09:51:00;4.13;;;1.92;;
61019;SDS011;51384;45.494;9.150;2022-07-12T09:53:31;6.65;;;2.33;;
61019;SDS011;51384;45.494;9.150;2022-07-12T09:56:02;5.13;;;2.00;;
61019;SDS011;51384;45.494;9.150;2022-07-12T09:58:39;3.00;;;1.65;;
61019;SDS011;51384;45.494;9.150;2022-07-12T10:01:05;3.38;;;2.10;;
61019;SDS011;51384;45.494;9.150;2022-07-12T10:03:32;5.25;;;1.88;;
61019;SDS011;51384;45.494;9.150;2022-07-12T10:06:01;3.03;;;1.90;;
61019;SDS011;51384;45.494;9.150;2022-07-12T10:08:28;4.78;;;2.30;;
61019;SDS011;51384;45.494;9.150;2022-07-12T10:10:55;7.70;;;2.10;;
61019;SDS011;51384;45.494;9.150;2022-07-12T10:13:21;4.93;;;1.90;;
61019;SDS011;51384;45.494;9.150;2022-07-12T10:15:48;4.90;;;2.20;;
61019;SDS011;51384;45.494;9.150;2022-07-12T10:18:18;3.00;;;1.80;;
61019;SDS011;51384;45.494;9.150;2022-07-12T10:20:45;4.03;;;2.15;;
61019;SDS011;51384;45.494;9.150;2022-07-12T10:23:30;3.97;;;2.30;;
61019;SDS011;51384;45.494;9.150;2022-07-12T10:25:59;4.20;;;2.17;;
61019;SDS011;51384;45.494;9.150;2022-07-12T10:31:10;3.17;;;2.13;;
61019;SDS011;51384;45.494;9.150;2022-07-12T10:33:36;2.80;;;2.25;;
61019;SDS011;51384;45.494;9.150;2022-07-12T10:36:03;5.53;;;2.30;;
61019;SDS011;51384;45.494;9.150;2022-07-12T10:38:31;3.25;;;1.92;;
61019;SDS011;51384;45.494;9.150;2022-07-12T10:40:57;4.60;;;2.50;;
61019;SDS011;51384;45.494;9.150;2022-07-12T10:43:24;3.97;;;2.17;;
61019;SDS011;51384;45.494;9.150;2022-07-12T10:46:23;5.22;;;2.38;;
61019;SDS011;51384;45.494;9.150;2022-07-12T10:48:50;5.50;;;2.30;;
61019;SDS011;51384;45.494;9.150;2022-07-12T10:51:17;4.00;;;2.20;;
61019;SDS011;51384;45.494;9.150;2022-07-12T10:53:47;5.07;;;2.70;;
61019;SDS011;51384;45.494;9.150;2022-07-12T10:56:22;3.42;;;2.30;;
61019;SDS011;51384;45.494;9.150;2022-07-12T11:03:46;4.13;;;2.30;;
61019;SDS011;51384;45.494;9.150;2022-07-12T11:06:13;4.50;;;2.28;;
61019;SDS011;51384;45.494;9.150;2022-07-12T11:08:46;4.03;;;2.13;;
61019;SDS011;51384;45.494;9.150;2022-07-12T11:11:12;4.95;;;2.53;;
61019;SDS011;51384;45.494;9.150;2022-07-12T11:13:38;4.88;;;2.25;;
61019;SDS011;51384;45.494;9.150;2022-07-12T11:16:04;3.90;;;2.33;;
61019;SDS011;51384;45.494;9.150;2022-07-12T11:18:31;3.90;;;2.30;;
61019;SDS011;51384;45.494;9.150;2022-07-12T11:20:58;5.60;;;2.42;;
61019;SDS011;51384;45.494;9.150;2022-07-12T11:23:24;3.08;;;2.03;;
61019;SDS011;51384;45.494;9.150;2022-07-12T11:25:53;4.75;;;2.58;;
61019;SDS011;51384;45.494;9.150;2022-07-12T11:28:20;2.90;;;2.10;;
61019;SDS011;51384;45.494;9.150;2022-07-12T11:30:52;5.57;;;2.38;;
61019;SDS011;51384;45.494;9.150;2022-07-12T11:33:19;6.15;;;2.63;;
61019;SDS011;51384;45.494;9.150;2022-07-12T11:35:45;5.15;;;2.65;;
61019;SDS011;51384;45.494;9.150;2022-07-12T11:38:11;5.22;;;2.03;;
61019;SDS011;51384;45.494;9.150;2022-07-12T11:40:38;4.63;;;2.38;;
61019;SDS011;51384;45.494;9.150;2022-07-12T11:43:04;5.28;;;2.78;;
61019;SDS011;51384;45.494;9.150;2022-07-12T11:45:31;2.22;;;1.83;;
61019;SDS011;51384;45.494;9.150;2022-07-12T11:47:58;3.95;;;2.35;;
61019;SDS011;51384;45.494;9.150;2022-07-12T11:50:25;4.55;;;2.10;;
61019;SDS011;51384;45.494;9.150;2022-07-12T11:52:51;2.92;;;2.08;;
61019;SDS011;51384;45.494;9.150;2022-07-12T11:55:17;5.85;;;2.58;;
61019;SDS011;51384;45.494;9.150;2022-07-12T11:57:43;3.13;;;2.00;;
61019;SDS011;51384;45.494;9.150;2022-07-12T12:00:15;3.40;;;2.55;;
61019;SDS011;51384;45.494;9.150;2022-07-12T12:05:07;3.25;;;2.35;;
61019;SDS011;51384;45.494;9.150;2022-07-12T12:07:33;4.97;;;2.53;;
61019;SDS011;51384;45.494;9.150;2022-07-12T12:12:27;5.43;;;2.60;;
61019;SDS011;51384;45.494;9.150;2022-07-12T12:14:53;5.38;;;2.50;;
61019;SDS011;51384;45.494;9.150;2022-07-12T12:17:19;4.18;;;2.22;;
61019;SDS011;51384;45.494;9.150;2022-07-12T12:19:45;3.75;;;2.17;;
61019;SDS011;51384;45.494;9.150;2022-07-12T12:24:59;5.05;;;2.83;;
61019;SDS011;51384;45.494;9.150;2022-07-12T12:27:26;6.75;;;2.80;;
61019;SDS011;51384;45.494;9.150;2022-07-12T12:29:52;5.30;;;2.40;;
61019;SDS011;51384;45.494;9.150;2022-07-12T12:32:18;3.85;;;2.45;;
61019;SDS011;51384;45.494;9.150;2022-07-12T12:37:29;4.72;;;2.25;;
61019;SDS011;51384;45.494;9.150;2022-07-12T12:39:56;3.97;;;2.72;;
61019;SDS011;51384;45.494;9.150;2022-07-12T12:42:25;4.13;;;2.20;;
61019;SDS011;51384;45.494;9.150;2022-07-12T12:44:51;6.95;;;2.80;;
61019;SDS011;51384;45.494;9.150;2022-07-12T12:47:17;4.07;;;2.20;;
61019;SDS011;51384;45.494;9.150;2022-07-12T12:49:55;4.18;;;2.55;;
61019;SDS011;51384;45.494;9.150;2022-07-12T12:52:28;6.20;;;2.30;;
61019;SDS011;51384;45.494;9.150;2022-07-12T12:54:56;5.78;;;2.50;;
61019;SDS011;51384;45.494;9.150;2022-07-12T12:57:22;7.50;;;2.67;;
61019;SDS011;51384;45.494;9.150;2022-07-12T12:59:50;5.45;;;2.47;;
61019;SDS011;51384;45.494;9.150;2022-07-12T13:02:16;2.97;;;2.20;;
61019;SDS011;51384;45.494;9.150;2022-07-12T13:04:43;3.55;;;2.20;;
61019;SDS011;51384;45.494;9.150;2022-07-12T13:07:10;4.65;;;2.15;;
61019;SDS011;51384;45.494;9.150;2022-07-12T13:09:36;3.38;;;1.90;;
61019;SDS011;51384;45.494;9.150;2022-07-12T13:12:03;5.63;;;2.35;;
61019;SDS011;51384;45.494;9.150;2022-07-12T13:14:29;5.97;;;3.08;;
61019;SDS011;51384;45.494;9.150;2022-07-12T13:16:55;6.28;;;2.88;;
61019;SDS011;51384;45.494;9.150;2022-07-12T13:19:21;5.68;;;2.50;;
61019;SDS011;51384;45.494;9.150;2022-07-12T13:21:47;5.57;;;2.78;;
61019;SDS011;51384;45.494;9.150;2022-07-12T13:24:14;5.20;;;2.58;;
61019;SDS011;51384;45.494;9.150;2022-07-12T13:26:40;5.70;;;2.38;;
61019;SDS011;51384;45.494;9.150;2022-07-12T13:29:06;3.90;;;2.30;;
61019;SDS011;51384;45.494;9.150;2022-07-12T13:31:32;6.80;;;3.17;;
61019;SDS011;51384;45.494;9.150;2022-07-12T13:33:58;4.65;;;2.50;;
61019;SDS011;51384;45.494;9.150;2022-07-12T13:36:24;7.28;;;2.70;;
61019;SDS011;51384;45.494;9.150;2022-07-12T13:38:50;4.78;;;2.40;;
61019;SDS011;51384;45.494;9.150;2022-07-12T13:41:16;5.30;;;2.50;;
61019;SDS011;51384;45.494;9.150;2022-07-12T13:43:42;6.05;;;2.85;;
61019;SDS011;51384;45.494;9.150;2022-07-12T13:46:08;6.80;;;3.10;;
61019;SDS011;51384;45.494;9.150;2022-07-12T13:48:34;2.80;;;2.20;;
61019;SDS011;51384;45.494;9.150;2022-07-12T13:51:00;3.45;;;2.10;;
61019;SDS011;51384;45.494;9.150;2022-07-12T13:53:26;7.43;;;2.60;;
61019;SDS011;51384;45.494;9.150;2022-07-12T13:55:52;4.65;;;2.38;;
61019;SDS011;51384;45.494;9.150;2022-07-12T13:58:19;4.38;;;2.30;;
61019;SDS011;51384;45.494;9.150;2022-07-12T14:00:45;4.90;;;2.83;;
61019;SDS011;51384;45.494;9.150;2022-07-12T14:03:11;4.65;;;2.63;;
61019;SDS011;51384;45.494;9.150;2022-07-12T14:05:37;4.25;;;2.80;;
61019;SDS011;51384;45.494;9.150;2022-07-12T14:08:03;3.92;;;2.63;;
61019;SDS011;51384;45.494;9.150;2022-07-12T14:10:29;4.68;;;2.60;;
61019;SDS011;51384;45.494;9.150;2022-07-12T14:12:58;5.05;;;2.78;;
61019;SDS011;51384;45.494;9.150;2022-07-12T14:15:24;3.95;;;2.67;;
61019;SDS011;51384;45.494;9.150;2022-07-12T14:18:17;6.47;;;3.13;;
61019;SDS011;51384;45.494;9.150;2022-07-12T14:20:43;3.97;;;2.90;;
61019;SDS011;51384;45.494;9.150;2022-07-12T14:23:10;3.70;;;2.40;;
61019;SDS011;51384;45.494;9.150;2022-07-12T14:25:38;5.30;;;2.47;;
61019;SDS011;51384;45.494;9.150;2022-07-12T14:28:04;5.72;;;2.95;;
61019;SDS011;51384;45.494;9.150;2022-07-12T14:30:30;4.85;;;2.88;;
61019;SDS011;51384;45.494;9.150;2022-07-12T14:32:56;7.60;;;3.17;;
61019;SDS011;51384;45.494;9.150;2022-07-12T14:35:22;4.43;;;2.53;;
61019;SDS011;51384;45.494;9.150;2022-07-12T14:37:48;4.53;;;2.45;;
61019;SDS011;51384;45.494;9.150;2022-07-12T14:40:14;4.07;;;2.72;;
61019;SDS011;51384;45.494;9.150;2022-07-12T14:42:40;3.47;;;2.45;;
61019;SDS011;51384;45.494;9.150;2022-07-12T14:45:09;3.65;;;2.50;;
61019;SDS011;51384;45.494;9.150;2022-07-12T14:47:36;4.25;;;2.30;;
61019;SDS011;51384;45.494;9.150;2022-07-12T14:50:02;6.55;;;3.20;;
61019;SDS011;51384;45.494;9.150;2022-07-12T14:52:30;4.10;;;2.88;;
61019;SDS011;51384;45.494;9.150;2022-07-12T14:54:56;4.65;;;2.78;;
61019;SDS011;51384;45.494;9.150;2022-07-12T14:57:22;4.50;;;3.00;;
61019;SDS011;51384;45.494;9.150;2022-07-12T14:59:48;4.70;;;3.17;;
61019;SDS011;51384;45.494;9.150;2022-07-12T15:02:14;4.00;;;3.05;;
61019;SDS011;51384;45.494;9.150;2022-07-12T15:04:42;5.45;;;2.95;;
61019;SDS011;51384;45.494;9.150;2022-07-12T15:07:08;6.70;;;3.03;;
61019;SDS011;51384;45.494;9.150;2022-07-12T15:09:34;4.07;;;2.80;;
61019;SDS011;51384;45.494;9.150;2022-07-12T15:12:00;4.57;;;2.85;;
61019;SDS011;51384;45.494;9.150;2022-07-12T15:14:26;4.47;;;2.90;;